Tiempo atmosférico en la estación meteorológica de Son Servera, Illes Balears (28 m.)



Fecha
DESCASC
Temp. máxima en grados centígrados (hora)
DESCASC
Temp. mínima en grados centígrados (hora)
DESCASC
Temp. media en grados centígrados
DESCASC
Racha de viento máxima en m/sg (hora)
DESCASC
Velocidad máxima media en intervalos de 10 minutos(hora)
DESCASC
Precipitaciones diarias en mm
DESCASC
Precipitaciones de 00:00 a 06:00 en mm
DESCASC
Precipitaciones de 06:00 a 12:00 en mm
DESCASC
Precipitaciones de 12:00 a 18:00 en mm
DESCASC
Precipitaciones de 18:00 a 24:00 en mm
DESCASC
16-01-2020 20.3 (12:30) 5.4 (01:50) 12.8 4.72 (13:20) 3.06 (12:40) 0 0 0 0 0
15-01-2020 17.5 (12:30) 6.1 (23:20) 11.8 7.78 (05:50) 4.44 (11:00) 0 0 0 0 0
14-01-2020 16.1 (12:50) 7.3 (03:50) 11.7 9.72 (12:20) 5.83 (12:30) 0 0 0 0 0
13-01-2020 17.9 (14:10) 2.3 (07:50) 10.1 6.94 (12:40) 4.72 (12:40) 0 0 0 0 0
12-01-2020 14.6 (14:00) 5.4 (00:00) 10 9.17 (12:10) 5.28 (13:00) 0 0 0 0 0
11-01-2020 13.8 (13:40) 9.8 (00:00) 11.8 13.33 (12:20) 7.78 (14:40) 0 0 0 0 0
10-01-2020 15.1 (12:20) 5.6 (00:00) 10.4 13.89 (18:20) 7.78 (21:40) 2.4 0 0 0.4 2
09-01-2020 17.5 (13:30) 6.2 (00:00) 11.8 5 (14:00) 3.06 (08:00) 0 0 0 0 0
08-01-2020 16.3 (13:50) 6.5 (00:00) 11.4 8.61 (14:00) 5 (13:20) 0 0 0 0 0
07-01-2020 18.6 (14:00) 7.2 (00:00) 12.9 4.72 (14:20) 2.78 (07:50) 0 0 0 0 0
06-01-2020 14.6 (13:40) 5.9 (00:00) 10.3 4.44 (04:40) 2.78 (02:10) 0 0 0 0 0
05-01-2020 18.8 (11:20) 3.7 (00:00) 11.2 4.17 (13:30) 2.78 (07:30) 0 0 0 0 0
04-01-2020 19.9 (14:20) 6 (00:00) 12.9 6.11 (18:20) 3.89 (18:50) 0 0 0 0 0
03-01-2020 16.1 (14:20) 9.4 (00:00) 12.8 4.72 (12:40) 2.5 (15:30) 0 0 0 0 0
02-01-2020 17.6 (14:00) 6.9 (00:00) 12.3 7.22 (14:30) 3.06 (13:40) 0 0 0 0 0
01-01-2020 15.8 (10:40) 5.3 (00:00) 10.6 4.17 (14:00) 3.06 (04:50) 0 0 0 0 0
31-12-2019 -- (--) -- (--) -- -- (--) -- (--) -- -- -- -- 0
30-12-2019 18 (11:00) 5.9 (00:00) 12 -- (--) -- (--) 0 0 0 0 0
29-12-2019 17.8 (11:00) 7.9 (00:00) 12.8 5 (14:30) 3.06 (14:30) 0 0 0 0 0
28-12-2019 16.8 (11:50) 7.9 (00:00) 12.3 7.5 (12:00) 4.72 (12:20) 0 0 0 0 0
27-12-2019 20.6 (14:20) 7.6 (00:00) 14.1 5.56 (00:50) 3.33 (11:40) 0 0 0 0 0
26-12-2019 21.8 (12:30) 7.5 (00:00) 14.6 8.33 (23:40) 4.72 (15:40) 0 0 0 0 0
25-12-2019 21.7 (12:00) 7.4 (00:00) 14.6 3.89 (02:20) 3.06 (02:00) 0 0 0 0 0
24-12-2019 21 (12:10) 6.2 (00:00) 13.6 4.17 (05:40) 2.78 (08:10) 0 0 0 0 0
23-12-2019 20.4 (15:10) 7.1 (00:00) 13.7 16.67 (04:40) 9.44 (04:40) 0 0 0 0 0
22-12-2019 21.7 (12:10) 15.8 (00:00) 18.8 20.83 (00:20) 12.78 (00:20) 0 0 0 0 0
21-12-2019 21.9 (12:00) 16.4 (00:00) 19.1 16.94 (23:59) 9.72 (23:50) 0.6 0.6 0 0 0
20-12-2019 18.2 (14:20) 14.9 (00:00) 16.6 17.78 (10:20) 9.17 (23:59) 0.2 0 0.2 0 0

Gráficas

Temp. máximas Temp. mínimas Temp. medias Precipitaciones Rachas de viento máximas Velocidades máximas media en intervalos de 10 minutos

Datos horarios

Fecha y hora oficial Temperatura (ºC) Velocidad del viento (km/h) Dirección del viento Racha (km/h) Dirección de racha Precipitación (mm) Presión (hPa) Tendencia (hPa) Humedad (%)
2020-01-18 23:00:00 6.9 3 Norte 8 Norte 0 -- -- 95
2020-01-18 22:00:00 7 4 Norte 8 Noroeste 0 -- -- 92
2020-01-18 21:00:00 7.6 6 Noroeste 9 Noroeste 0 -- -- 89
2020-01-18 20:00:00 8.3 3 Norte 11 Noroeste 0 -- -- 80
2020-01-18 19:00:00 10.9 8 Noroeste 21 Oeste 0 -- -- 70
2020-01-18 18:00:00 13.2 11 Oeste 19 Oeste 0 -- -- 62
2020-01-18 17:00:00 14.8 9 Sudoeste 21 Sudoeste 0 -- -- 78
2020-01-18 16:00:00 15.7 13 Sudoeste 21 Sudoeste 0 -- -- 73
2020-01-18 15:00:00 15.7 12 Sudoeste 22 Sudoeste 0 -- -- 73
2020-01-18 14:00:00 16.3 11 Sudoeste 19 Sudoeste 0 -- -- 69
2020-01-18 13:00:00 14.9 6 Sudoeste 17 Sudoeste 0 -- -- 78
2020-01-18 12:00:00 14.7 10 Sudoeste 19 Sudoeste 0 -- -- 78
2020-01-18 11:00:00 12.9 2 Norte 6 Noroeste 0 -- -- 93
2020-01-18 10:00:00 9.4 3 Noroeste 9 Noroeste 0 -- -- 97
2020-01-18 09:00:00 7.7 7 Norte 10 Norte 0 -- -- 97
2020-01-18 08:00:00 6.4 7 Noroeste 10 Noroeste 0 -- -- 97
2020-01-18 07:00:00 5.5 6 Noroeste 11 Noroeste 0 -- -- 96
2020-01-18 06:00:00 6 9 Noroeste 13 Noroeste 0 -- -- 96
2020-01-18 05:00:00 6.2 8 Norte 13 Noroeste 0 -- -- 94
2020-01-18 04:00:00 6.6 8 Noroeste 13 Noroeste 0 -- -- 95
2020-01-18 03:00:00 6.5 9 Noroeste 13 Noroeste 0 -- -- 94
2020-01-18 02:00:00 7.2 9 Noroeste 11 Noroeste 0 -- -- 92
2020-01-18 01:00:00 7.7 8 Noroeste 10 Noroeste 0 -- -- 90
2020-01-18 00:00:00 9.1 5 Noroeste 8 Nordeste 0 -- -- 84
2020-01-17 23:00:00 12 5 Nordeste 21 Este 0 -- -- 79
2020-01-17 22:00:00 10.4 6 Noroeste 15 Norte 0 -- -- 66
2020-01-17 21:00:00 11.6 10 Norte 14 Noroeste 0 -- -- 63
2020-01-17 20:00:00 10.4 6 Noroeste 10 Noroeste 0 -- -- 69
2020-01-17 19:00:00 12.7 6 Norte 17 Noroeste 0 -- -- 59
2020-01-17 18:00:00 13.8 7 Norte 18 Norte 0 -- -- 55
2020-01-17 17:00:00 16.9 11 Norte 20 Noroeste 0 -- -- 46
2020-01-17 16:00:00 18.7 12 Noroeste 32 Oeste 0 -- -- 51
2020-01-17 15:00:00 18.7 21 Oeste 38 Noroeste 0 -- -- 48
2020-01-17 14:00:00 18.8 24 Noroeste 38 Oeste 0 -- -- 52
2020-01-17 13:00:00 18.6 19 Oeste 40 Oeste 0 -- -- 55
2020-01-17 12:00:00 17.7 12 Oeste 36 Oeste 0 -- -- 67
2020-01-17 11:00:00 15.9 22 Oeste 38 Oeste 0 -- -- 79
2020-01-17 10:00:00 13.5 5 Nordeste 10 Nordeste 0 -- -- 94
2020-01-17 09:00:00 9.9 3 Nordeste 8 Nordeste 0.2 -- -- 97
2020-01-17 08:00:00 9.2 3 Nordeste 8 Noroeste 0 -- -- 99
2020-01-17 07:00:00 9.6 2 Nordeste 14 Norte 0 -- -- 97
2020-01-17 06:00:00 8.8 2 Norte 12 Noroeste 0 -- -- 96
2020-01-17 05:00:00 8.8 2 Norte 10 Norte 0 -- -- 96
2020-01-17 04:00:00 7.9 4 Norte 15 Oeste 0 -- -- 92
2020-01-17 03:00:00 7.3 6 Noroeste 10 Noroeste 0 -- -- 97
2020-01-17 02:00:00 7.4 8 Noroeste 13 Noroeste 0 -- -- 97
2020-01-17 01:00:00 7.4 7 Noroeste 13 Noroeste 0 -- -- 96
2020-01-17 00:00:00 8.2 7 Noroeste 15 Noroeste 0 -- -- 97
2020-01-16 23:00:00 8.6 9 Noroeste 13 Oeste 0 -- -- 96
2020-01-16 22:00:00 8.1 6 Noroeste 9 Noroeste 0 -- -- 94
2020-01-16 21:00:00 9 7 Noroeste 16 Oeste 0 -- -- 92
2020-01-16 20:00:00 10.6 0 Calma 15 Oeste 0 -- -- 89
2020-01-16 19:00:00 12 10 Oeste 14 Oeste 0 -- -- 88
2020-01-16 18:00:00 13.8 8 Oeste 14 Sudoeste 0 -- -- 82
2020-01-16 17:00:00 15.2 9 Sudoeste 16 Sudoeste 0 -- -- 76
2020-01-16 16:00:00 16.5 6 Sur 15 Sudeste 0 -- -- 73
2020-01-16 15:00:00 15.9 5 Sur 15 Sur 0 -- -- 78
2020-01-16 14:00:00 18.1 5 Sudeste 17 Noroeste 0 -- -- 66
2020-01-16 13:00:00 17.5 9 Noroeste 15 Noroeste 0 -- -- 57
2020-01-16 12:00:00 18.8 8 Noroeste 16 Noroeste 0 -- -- 49
2020-01-16 11:00:00 15.8 6 Sudoeste 13 Sudoeste 0 -- -- 69
2020-01-16 10:00:00 11.4 3 Norte 10 Norte 0 -- -- 93
2020-01-16 09:00:00 7.5 7 Norte 13 Noroeste 0 -- -- 97
2020-01-16 08:00:00 5.9 9 Noroeste 12 Noroeste 0 -- -- 98
2020-01-16 07:00:00 6.3 9 Norte 12 Noroeste 0 -- -- 97
2020-01-16 06:00:00 5.9 8 Norte 13 Noroeste 0 -- -- 96
2020-01-16 05:00:00 5.8 9 Norte 12 Noroeste 0 -- -- 97
2020-01-16 04:00:00 6.2 7 Norte 13 Noroeste 0 -- -- 96
2020-01-16 03:00:00 6 9 Noroeste 13 Noroeste 0 -- -- 96
2020-01-16 02:00:00 5.6 9 Noroeste 12 Noroeste 0 -- -- 95
2020-01-16 01:00:00 6 9 Noroeste 13 Noroeste 0 -- -- 94
2020-01-16 00:00:00 6.5 9 Noroeste 14 Noroeste 0 -- -- 94
2020-01-15 23:00:00 6.6 7 Noroeste 11 Noroeste 0 -- -- 93
2020-01-15 22:00:00 6.7 8 Noroeste 12 Noroeste 0 -- -- 91
2020-01-15 21:00:00 7.4 3 Norte 8 Noroeste 0 -- -- 88
2020-01-15 20:00:00 9.1 7 Noroeste 14 Oeste 0 -- -- 79
2020-01-15 19:00:00 12.7 7 Oeste 15 Sudoeste 0 -- -- 71
2020-01-15 18:00:00 12.8 5 Oeste 17 Oeste 0 -- -- 69
2020-01-15 17:00:00 14.5 10 Oeste 21 Oeste 0 -- -- 64
2020-01-15 16:00:00 15.7 9 Oeste 22 Oeste 0 -- -- 58
2020-01-15 15:00:00 16 16 Oeste 24 Oeste 0 -- -- 55
2020-01-15 14:00:00 16.6 13 Oeste 26 Oeste 0 -- -- 51
2020-01-15 13:00:00 16.3 13 Oeste 27 Oeste 0 -- -- 63
2020-01-15 12:00:00 17.3 9 Sudoeste 24 Sudoeste 0 -- -- 67
2020-01-15 11:00:00 15.5 16 Sudoeste 26 Sudoeste 0 -- -- 72
2020-01-15 10:00:00 15.1 15 Sudoeste 28 Sudoeste 0 -- -- 75
2020-01-15 09:00:00 12.9 8 Sudoeste 20 Oeste 0 -- -- 82
2020-01-15 08:00:00 13.2 13 Oeste 27 Oeste 0 -- -- 78
2020-01-15 07:00:00 13.1 12 Oeste 27 Oeste 0 -- -- 75
2020-01-15 06:00:00 13 13 Oeste 28 Oeste 0 -- -- 74
2020-01-15 05:00:00 13 12 Oeste 23 Oeste 0 -- -- 72
2020-01-15 04:00:00 12.8 8 Sudoeste 17 Oeste 0 -- -- 74
2020-01-15 03:00:00 12.6 9 Sudoeste 24 Oeste 0 -- -- 71
2020-01-15 02:00:00 12.5 11 Oeste 22 Oeste 0 -- -- 71
2020-01-15 01:00:00 12.6 11 Oeste 18 Sudoeste 0 -- -- 70
2020-01-15 00:00:00 12.4 9 Sudoeste 19 Oeste 0 -- -- 71
2020-01-14 23:00:00 12.4 11 Sudoeste 18 Sudoeste 0 -- -- 71
2020-01-14 22:00:00 11.8 5 Sudoeste 24 Sudoeste 0 -- -- 67
2020-01-14 21:00:00 12.7 12 Oeste 24 Oeste 0 -- -- 64
2020-01-14 20:00:00 12.9 12 Oeste 19 Oeste 0 -- -- 70
2020-01-14 19:00:00 12.4 7 Oeste 17 Oeste 0 -- -- 69
2020-01-14 18:00:00 12 7 Sudoeste 15 Sudoeste 0 -- -- 70
2020-01-14 17:00:00 13.4 10 Sudoeste 23 Sudoeste 0 -- -- 66
2020-01-14 16:00:00 14.1 14 Sudoeste 27 Oeste 0 -- -- 64
2020-01-14 15:00:00 14.5 14 Sudoeste 32 Sudoeste 0 -- -- 65
2020-01-14 14:00:00 14.5 16 Sudoeste 33 Sudoeste 0 -- -- 62
2020-01-14 13:00:00 15.7 19 Sudoeste 35 Sudoeste 0 -- -- 61
2020-01-14 12:00:00 15 20 Sudoeste 32 Sudoeste 0 -- -- 63
2020-01-14 11:00:00 15 15 Sudoeste 31 Oeste 0 -- -- 64
2020-01-14 10:00:00 13 9 Sudoeste 26 Sudoeste 0 -- -- 71
2020-01-14 09:00:00 9.3 5 Oeste 11 Oeste 0 -- -- 89
2020-01-14 08:00:00 8 4 Noroeste 13 Oeste 0 -- -- 87
2020-01-14 07:00:00 8.5 5 Noroeste 15 Oeste 0 -- -- 78
2020-01-14 06:00:00 11.5 7 Sudoeste 25 Oeste 0 -- -- 72
2020-01-14 05:00:00 9.1 6 Oeste 18 Oeste 0 -- -- 82
2020-01-14 04:00:00 7.6 8 Noroeste 12 Oeste 0 -- -- 91
2020-01-14 03:00:00 10.6 6 Oeste 16 Sudoeste 0 -- -- 74
2020-01-14 02:00:00 8.4 7 Noroeste 17 Oeste 0 -- -- 83
2020-01-14 01:00:00 11.1 6 Oeste 23 Oeste 0 -- -- 75
2020-01-14 00:00:00 8.2 6 Oeste 18 Sudoeste 0 -- -- 88
2020-01-13 23:00:00 7.3 6 Oeste 13 Oeste 0 -- -- 93
2020-01-13 22:00:00 6.8 6 Noroeste 10 Noroeste 0 -- -- 89
2020-01-13 21:00:00 7.7 8 Noroeste 13 Oeste 0 -- -- 90
2020-01-13 20:00:00 7.7 7 Noroeste 15 Oeste 0 -- -- 86
2020-01-13 19:00:00 9.1 4 Noroeste 16 Oeste 0 -- -- 78
2020-01-13 18:00:00 11.8 5 Oeste 15 Sudoeste 0 -- -- 72
2020-01-13 17:00:00 13.4 7 Oeste 21 Oeste 0 -- -- 66
2020-01-13 16:00:00 16.1 9 Oeste 20 Noroeste 0 -- -- 55
2020-01-13 15:00:00 17.3 13 Noroeste 21 Noroeste 0 -- -- 50
2020-01-13 14:00:00 17.4 14 Noroeste 24 Oeste 0 -- -- 56
2020-01-13 13:00:00 16.1 14 Oeste 25 Noroeste 0 -- -- 61
2020-01-13 12:00:00 15.9 12 Noroeste 23 Oeste 0 -- -- 66
2020-01-13 11:00:00 13.9 12 Oeste 19 Noroeste 0 -- -- 72
2020-01-13 10:00:00 12.8 3 Noroeste 8 Noroeste 0 -- -- 88
2020-01-13 09:00:00 6.5 6 Noroeste 9 Noroeste 0 -- -- 98
2020-01-13 08:00:00 2.5 6 Noroeste 9 Noroeste 0 -- -- 99
2020-01-13 07:00:00 2.8 6 Norte 9 Noroeste 0 -- -- 97
2020-01-13 06:00:00 2.9 5 Noroeste 9 Noroeste 0 -- -- 97
2020-01-13 05:00:00 2.6 7 Noroeste 10 Noroeste 0 -- -- 97
2020-01-13 04:00:00 2.9 8 Noroeste 10 Noroeste 0 -- -- 96
2020-01-13 03:00:00 3.1 9 Noroeste 11 Noroeste 0 -- -- 96
2020-01-13 02:00:00 4.2 9 Noroeste 12 Noroeste 0 -- -- 96
2020-01-13 01:00:00 4.7 6 Noroeste 10 Noroeste 0 -- -- 95
2020-01-13 00:00:00 5.4 6 Noroeste 10 Noroeste 0 -- -- 94
2020-01-12 23:00:00 6.1 7 Noroeste 12 Noroeste 0 -- -- 93
2020-01-12 22:00:00 6.8 7 Noroeste 12 Noroeste 0 -- -- 92
2020-01-12 21:00:00 7.2 8 Noroeste 14 Noroeste 0 -- -- 90
2020-01-12 20:00:00 7.3 7 Noroeste 11 Norte 0 -- -- 87
2020-01-12 19:00:00 8.8 5 Noroeste 15 Nordeste 0 -- -- 81
2020-01-12 18:00:00 10.3 8 Norte 19 Norte 0 -- -- 77
2020-01-12 17:00:00 12 12 Norte 27 Norte 0 -- -- 72
2020-01-12 16:00:00 13.2 18 Nordeste 31 Nordeste 0 -- -- 67
2020-01-12 15:00:00 14.2 17 Nordeste 33 Nordeste 0 -- -- 63
2020-01-12 14:00:00 14.6 15 Nordeste 32 Norte 0 -- -- 62
2020-01-12 13:00:00 14.1 19 Nordeste 33 Norte 0 -- -- 63
2020-01-12 12:00:00 14.5 13 Nordeste 28 Norte 0 -- -- 61
2020-01-12 11:00:00 14.1 16 Nordeste 27 Nordeste 0 -- -- 63
2020-01-12 10:00:00 13.4 14 Norte 26 Nordeste 0 -- -- 66
2020-01-12 09:00:00 11.4 9 Norte 14 Norte 0 -- -- 71
2020-01-12 08:00:00 8.3 6 Norte 12 Norte 0 -- -- 80
2020-01-12 07:00:00 9.3 9 Norte 14 Norte 0 -- -- 77
2020-01-12 06:00:00 9.5 10 Norte 20 Norte 0 -- -- 78
2020-01-12 05:00:00 10.3 10 Norte 21 Nordeste 0 -- -- 75
2020-01-12 04:00:00 10.4 10 Norte 24 Nordeste 0 -- -- 74
2020-01-12 03:00:00 9.8 10 Norte 16 Norte 0 -- -- 79
2020-01-12 02:00:00 8.9 9 Norte 13 Norte 0 -- -- 80
2020-01-12 01:00:00 9.4 7 Norte 15 Norte 0 -- -- 77
2020-01-12 00:00:00 9.8 9 Norte 15 Norte 0 -- -- 76
2020-01-11 23:00:00 10 8 Norte 21 Nordeste 0 -- -- 78
2020-01-11 22:00:00 10.7 10 Norte 19 Norte 0 -- -- 74
2020-01-11 21:00:00 11.3 12 Norte 29 Nordeste 0 -- -- 72
2020-01-11 20:00:00 11.8 13 Nordeste 26 Nordeste 0 -- -- 69
2020-01-11 19:00:00 10.8 8 Norte 26 Nordeste 0 -- -- 72
2020-01-11 18:00:00 11 13 Nordeste 29 Nordeste 0 -- -- 71
2020-01-11 17:00:00 11.5 17 Nordeste 35 Nordeste 0 -- -- 68
2020-01-11 16:00:00 12.5 18 Nordeste 45 Nordeste 0 -- -- 66
2020-01-11 15:00:00 12.7 26 Nordeste 48 Norte 0 -- -- 63
2020-01-11 14:00:00 13.1 21 Nordeste 45 Nordeste 0 -- -- 65
2020-01-11 13:00:00 13.4 23 Nordeste 48 Nordeste 0 -- -- 63
2020-01-11 12:00:00 12.3 21 Nordeste 41 Nordeste 0 -- -- 68
2020-01-11 11:00:00 12.8 19 Nordeste 35 Este 0 -- -- 66
2020-01-11 10:00:00 11.9 14 Nordeste 35 Nordeste 0 -- -- 71
2020-01-11 09:00:00 11.7 16 Nordeste 37 Nordeste 0 -- -- 71
2020-01-11 08:00:00 12 17 Nordeste 32 Nordeste 0 -- -- 73
2020-01-11 07:00:00 12 14 Nordeste 40 Nordeste 0 -- -- 73
2020-01-11 06:00:00 12 20 Este 46 Este 0 -- -- 73
2020-01-11 05:00:00 11.8 19 Este 41 Este 0 -- -- 75
2020-01-11 04:00:00 12.4 20 Nordeste 42 Este 0 -- -- 77
2020-01-11 03:00:00 12.6 21 Este 44 Nordeste 0 -- -- 76
2020-01-11 02:00:00 12.3 18 Nordeste 43 Nordeste 0 -- -- 76
2020-01-11 01:00:00 12.4 21 Nordeste 41 Nordeste 0 -- -- 74
2020-01-11 00:00:00 12.5 20 Nordeste 47 Nordeste 0 -- -- 76
2020-01-10 23:00:00 12.2 15 Nordeste 45 Este 0 -- -- 77
2020-01-10 22:00:00 12 19 Este 45 Nordeste 2 -- -- 84
2020-01-10 21:00:00 13.1 23 Este 49 Nordeste 0 -- -- 73
2020-01-10 20:00:00 13.1 23 Este 45 Este 0 -- -- 72
2020-01-10 19:00:00 13.2 25 Este 50 Este 0 -- -- 72
2020-01-10 18:00:00 12.9 25 Este 49 Este 0 -- -- 78
2020-01-10 17:00:00 12.6 24 Este 50 Este 0 -- -- 80
2020-01-10 16:00:00 12.7 18 Este 40 Este 0.4 -- -- 82
2020-01-10 15:00:00 12.9 22 Este 41 Nordeste 0 -- -- 80
2020-01-10 14:00:00 13.3 18 Este 32 Este 0 -- -- 78
2020-01-10 13:00:00 13.4 13 Este 39 Este 0 -- -- 78
2020-01-10 12:00:00 14.8 15 Este 24 Este 0 -- -- 77
2020-01-10 11:00:00 12.8 10 Nordeste 20 Este 0 -- -- 95
2020-01-10 10:00:00 10.1 3 Norte 12 Noroeste 0 -- -- 97
2020-01-10 09:00:00 9.1 8 Noroeste 13 Noroeste 0 -- -- 98
2020-01-10 08:00:00 7.2 9 Noroeste 15 Noroeste 0 -- -- 98
2020-01-10 07:00:00 7.1 8 Noroeste 14 Noroeste 0 -- -- 97
2020-01-10 06:00:00 7.5 8 Noroeste 13 Noroeste 0 -- -- 98
2020-01-10 05:00:00 8.3 8 Noroeste 16 Noroeste 0 -- -- 98
2020-01-10 04:00:00 7 8 Noroeste 14 Norte 0 -- -- 97
2020-01-10 03:00:00 7.1 9 Noroeste 14 Norte 0 -- -- 97
2020-01-10 02:00:00 6 9 Noroeste 15 Noroeste 0 -- -- 97
2020-01-10 01:00:00 6.4 8 Norte 13 Noroeste 0 -- -- 97
2020-01-10 00:00:00 7 4 Norte 11 Noroeste 0 -- -- 96
2020-01-09 23:00:00 7.4 6 Norte 12 Noroeste 0 -- -- 95
2020-01-09 22:00:00 7.6 7 Norte 12 Noroeste 0 -- -- 94
2020-01-09 21:00:00 7.7 7 Noroeste 9 Noroeste 0 -- -- 92
2020-01-09 20:00:00 9.2 7 Norte 9 Noroeste 0 -- -- 91
2020-01-09 19:00:00 10 5 Norte 8 Noroeste 0 -- -- 88
2020-01-09 18:00:00 12.5 0 Calma 11 Sur 0 -- -- 80
2020-01-09 17:00:00 14 4 Sur 14 Sur 0 -- -- 75
2020-01-09 16:00:00 15.2 5 Sur 17 Sudeste 0 -- -- 73
2020-01-09 15:00:00 15.6 7 Sur 15 Sur 0 -- -- 69
2020-01-09 14:00:00 17.2 10 Sur 18 Sur 0 -- -- 63
2020-01-09 13:00:00 16.7 9 Sur 17 Sudeste 0 -- -- 67
2020-01-09 12:00:00 15.1 6 Sudeste 15 Sudeste 0 -- -- 74
2020-01-09 11:00:00 16.2 8 Este 15 Sudeste 0 -- -- 71
2020-01-09 10:00:00 15.8 4 Noroeste 12 Noroeste 0 -- -- 79
2020-01-09 09:00:00 8.9 7 Noroeste 14 Noroeste 0 -- -- 94
2020-01-09 08:00:00 6.4 11 Noroeste 15 Noroeste 0 -- -- 97
2020-01-09 07:00:00 6.7 8 Noroeste 13 Noroeste 0 -- -- 96
2020-01-09 06:00:00 7 10 Noroeste 15 Noroeste 0 -- -- 96
2020-01-09 05:00:00 7.1 9 Noroeste 14 Noroeste 0 -- -- 96
2020-01-09 04:00:00 7.4 8 Noroeste 13 Norte 0 -- -- 96
2020-01-09 03:00:00 7.6 9 Noroeste 13 Noroeste 0 -- -- 95
2020-01-09 02:00:00 7.5 9 Noroeste 13 Noroeste 0 -- -- 95
2020-01-09 01:00:00 7.7 7 Noroeste 13 Noroeste 0 -- -- 94
2020-01-09 00:00:00 7.6 8 Noroeste 13 Noroeste 0 -- -- 93
2020-01-08 23:00:00 8 7 Noroeste 11 Noroeste 0 -- -- 91
2020-01-08 22:00:00 8.3 7 Noroeste 10 Noroeste 0 -- -- 90
2020-01-08 21:00:00 9.3 5 Noroeste 11 Noroeste 0 -- -- 87
2020-01-08 20:00:00 9.7 6 Noroeste 11 Nordeste 0 -- -- 84
2020-01-08 19:00:00 12.2 3 Nordeste 18 Este 0 -- -- 76
2020-01-08 18:00:00 12.8 4 Nordeste 20 Nordeste 0 -- -- 76
2020-01-08 17:00:00 13.4 5 Nordeste 24 Nordeste 0 -- -- 75
2020-01-08 16:00:00 15.5 9 Nordeste 24 Este 0 -- -- 67
2020-01-08 15:00:00 15.6 13 Nordeste 26 Nordeste 0 -- -- 69
2020-01-08 14:00:00 15.4 18 Nordeste 31 Nordeste 0 -- -- 72
2020-01-08 13:00:00 15.1 13 Nordeste 28 Nordeste 0 -- -- 74
2020-01-08 12:00:00 15.7 13 Nordeste 24 Nordeste 0 -- -- 69
2020-01-08 11:00:00 15.2 15 Nordeste 29 Nordeste 0 -- -- 71
2020-01-08 10:00:00 14.5 14 Nordeste 26 Nordeste 0 -- -- 73
2020-01-08 09:00:00 11.7 11 Norte 20 Nordeste 0 -- -- 88
2020-01-08 08:00:00 9 7 Norte 15 Norte 0 -- -- 95
2020-01-08 07:00:00 8.8 6 Norte 11 Norte 0 -- -- 95
2020-01-08 06:00:00 7.9 8 Noroeste 12 Noroeste 0 -- -- 94
2020-01-08 05:00:00 7.7 8 Noroeste 13 Noroeste 0 -- -- 95
2020-01-08 04:00:00 7.6 8 Noroeste 12 Noroeste 0 -- -- 96
2020-01-08 03:00:00 7 10 Noroeste 12 Noroeste 0 -- -- 96
2020-01-08 02:00:00 6.7 8 Noroeste 12 Noroeste 0 -- -- 96
2020-01-08 01:00:00 6.9 5 Norte 9 Noroeste 0 -- -- 96
2020-01-08 00:00:00 7.6 5 Norte 8 Nordeste 0 -- -- 94
2020-01-07 23:00:00 8 4 Norte 8 Nordeste 0 -- -- 96
2020-01-07 22:00:00 8 5 Noroeste 9 Noroeste 0 -- -- 95
2020-01-07 21:00:00 8 6 Noroeste 10 Norte 0 -- -- 94
2020-01-07 20:00:00 8.6 6 Noroeste 11 Oeste 0 -- -- 92
2020-01-07 19:00:00 10.6 7 Oeste 15 Oeste 0 -- -- 86
2020-01-07 18:00:00 12.4 6 Oeste 11 Oeste 0 -- -- 82
2020-01-07 17:00:00 14.6 3 Sudeste 10 Norte 0 -- -- 73
2020-01-07 16:00:00 15.5 3 Norte 13 Norte 0 -- -- 68
2020-01-07 15:00:00 16.9 7 Norte 17 Noroeste 0 -- -- 62
2020-01-07 14:00:00 18.6 7 Noroeste 15 Norte 0 -- -- 57
2020-01-07 13:00:00 18.4 7 Noroeste 16 Norte 0 -- -- 57
2020-01-07 12:00:00 15 6 Norte 14 Norte 0 -- -- 69
2020-01-07 11:00:00 15.8 9 Norte 14 Nordeste 0 -- -- 67
2020-01-07 10:00:00 16.6 2 Noroeste 9 Noroeste 0 -- -- 81
2020-01-07 09:00:00 10.5 7 Noroeste 12 Noroeste 0 -- -- 96
2020-01-07 08:00:00 8.1 9 Noroeste 13 Noroeste 0 -- -- 97
2020-01-07 07:00:00 7.3 9 Noroeste 15 Noroeste 0 -- -- 96
2020-01-07 06:00:00 7.6 6 Noroeste 10 Noroeste 0 -- -- 96
2020-01-07 05:00:00 8 6 Noroeste 10 Noroeste 0 -- -- 96
2020-01-07 04:00:00 8.5 6 Noroeste 11 Noroeste 0 -- -- 95
2020-01-07 03:00:00 8.4 8 Noroeste 10 Noroeste 0 -- -- 95
2020-01-07 02:00:00 9.1 6 Norte 8 Norte 0 -- -- 93
2020-01-07 01:00:00 9.7 5 Norte 6 Norte 0 -- -- 91
2020-01-07 00:00:00 11 4 Noroeste 6 Norte 0 -- -- 88
2020-01-06 23:00:00 11.6 0 Calma 7 Noroeste 0 -- -- 86
2020-01-06 22:00:00 11.6 4 Noroeste 6 Noroeste 0 -- -- 86
2020-01-06 21:00:00 12 0 Calma 7 Noroeste 0 -- -- 83
2020-01-06 20:00:00 11.8 5 Noroeste 8 Noroeste 0 -- -- 85
2020-01-06 19:00:00 11.8 4 Noroeste 8 Norte 0 -- -- 85
2020-01-06 18:00:00 12.1 2 Nordeste 5 Noroeste 0 -- -- 83
2020-01-06 17:00:00 13.2 4 Noroeste 10 Noroeste 0 -- -- 76
2020-01-06 16:00:00 13.7 7 Noroeste 12 Noroeste 0 -- -- 74
2020-01-06 15:00:00 14 5 Noroeste 11 Noroeste 0 -- -- 72
2020-01-06 14:00:00 14.4 3 Noroeste 8 Noroeste 0 -- -- 70
2020-01-06 13:00:00 14.3 4 Noroeste 8 Noroeste 0 -- -- 71
2020-01-06 12:00:00 13.8 3 Noroeste 12 Oeste 0 -- -- 73
2020-01-06 11:00:00 12.5 3 Este 8 Noroeste 0 -- -- 82
2020-01-06 10:00:00 11.5 3 Noroeste 8 Noroeste 0 -- -- 85